createdAt,value
2017-08-11T00:01:55.767Z,10.20
2017-08-11T00:04:22.146Z,9.40
2017-08-11T00:06:48.532Z,9.87
2017-08-11T00:09:15.503Z,10.10
2017-08-11T00:11:42.696Z,7.40
2017-08-11T00:14:09.095Z,10.70
2017-08-11T00:16:35.515Z,9.07
2017-08-11T00:19:01.923Z,9.30
2017-08-11T00:21:28.360Z,12.60
2017-08-11T00:23:54.730Z,9.53
2017-08-11T00:26:21.107Z,10.23
2017-08-11T00:28:47.572Z,11.97
2017-08-11T00:31:13.967Z,8.90
2017-08-11T00:33:40.352Z,11.90
2017-08-11T00:36:06.767Z,9.17
2017-08-11T00:38:33.186Z,9.10
2017-08-11T00:40:59.592Z,10.97
2017-08-11T00:43:26.732Z,10.00
2017-08-11T00:45:53.900Z,9.73
2017-08-11T00:48:20.371Z,10.03
2017-08-11T00:50:46.763Z,12.33
2017-08-11T00:53:13.171Z,15.63
2017-08-11T00:55:40.319Z,14.43
2017-08-11T00:58:07.515Z,8.80
2017-08-11T01:00:34.007Z,9.33
2017-08-11T01:03:01.163Z,8.60
2017-08-11T01:05:28.347Z,12.10
2017-08-11T01:07:54.786Z,8.50
2017-08-11T01:10:21.196Z,10.10
2017-08-11T01:12:47.587Z,9.73
2017-08-11T01:15:13.963Z,9.60
2017-08-11T01:17:40.414Z,9.97
2017-08-11T01:20:06.834Z,9.30
2017-08-11T01:22:33.250Z,8.47
2017-08-11T01:24:59.640Z,11.67
2017-08-11T01:27:26.031Z,9.33
2017-08-11T01:29:52.506Z,13.53
2017-08-11T01:32:18.904Z,15.20
2017-08-11T01:34:45.295Z,12.20
2017-08-11T01:37:12.480Z,12.00
2017-08-11T01:39:38.939Z,8.60
2017-08-11T01:42:05.340Z,11.03
2017-08-11T01:44:31.762Z,9.27
2017-08-11T01:46:58.159Z,10.47
2017-08-11T01:49:24.605Z,13.27
2017-08-11T01:51:51.772Z,11.20
2017-08-11T01:54:18.932Z,11.50
2017-08-11T01:56:45.371Z,8.30
2017-08-11T01:59:11.887Z,11.27
2017-08-11T02:01:39.034Z,13.23
2017-08-11T02:04:06.200Z,16.03
2017-08-11T02:06:32.639Z,11.97
2017-08-11T02:08:59.076Z,13.47
2017-08-11T02:11:25.512Z,12.33
2017-08-11T02:13:51.927Z,9.83
2017-08-11T02:16:18.316Z,9.80
2017-08-11T02:18:44.856Z,10.20
2017-08-11T02:21:11.234Z,10.83
2017-08-11T02:23:37.675Z,11.97
2017-08-11T02:26:04.101Z,10.30
2017-08-11T02:28:30.548Z,10.13
2017-08-11T02:30:56.944Z,12.53
2017-08-11T02:33:24.083Z,10.10
2017-08-11T02:35:50.500Z,13.60
2017-08-11T02:38:16.899Z,10.73
2017-08-11T02:40:43.316Z,14.23
2017-08-11T02:43:09.719Z,11.87
2017-08-11T02:45:36.843Z,13.57
2017-08-11T02:48:03.591Z,12.33
2017-08-11T02:50:30.000Z,11.10
2017-08-11T02:52:56.387Z,12.23
2017-08-11T02:55:23.519Z,10.90
2017-08-11T02:57:49.932Z,11.33
2017-08-11T03:00:16.332Z,16.20
2017-08-11T03:02:42.731Z,21.67
2017-08-11T03:05:09.147Z,10.30
2017-08-11T03:07:36.276Z,10.53
2017-08-11T03:10:02.716Z,9.57
2017-08-11T03:12:29.118Z,12.00
2017-08-11T03:14:55.519Z,11.80
2017-08-11T03:17:21.986Z,11.30
2017-08-11T03:19:48.455Z,14.53
2017-08-11T03:22:14.899Z,12.10
2017-08-11T03:24:41.631Z,12.13
2017-08-11T03:27:08.134Z,17.20
2017-08-11T03:29:34.551Z,10.83
2017-08-11T03:32:00.947Z,13.27
2017-08-11T03:34:28.090Z,10.90
2017-08-11T03:36:55.216Z,10.47
2017-08-11T03:39:21.644Z,11.03
2017-08-11T03:41:48.032Z,11.27
2017-08-11T03:44:14.415Z,12.07
2017-08-11T03:46:40.843Z,13.87
2017-08-11T03:49:07.239Z,11.27
2017-08-11T03:51:33.647Z,11.50
2017-08-11T03:54:00.780Z,13.03
2017-08-11T03:56:27.939Z,12.80
2017-08-11T03:58:55.127Z,11.67
2017-08-11T04:01:21.512Z,13.77
2017-08-11T04:03:48.676Z,11.53
2017-08-11T04:06:15.815Z,10.37
2017-08-11T04:08:43.018Z,13.00
2017-08-11T04:11:09.431Z,12.43
2017-08-11T04:13:35.836Z,12.90
2017-08-11T04:16:02.994Z,14.40
2017-08-11T04:18:30.217Z,11.87
2017-08-11T04:20:56.654Z,12.10
2017-08-11T04:23:23.056Z,11.27
2017-08-11T04:25:49.447Z,12.07
2017-08-11T04:28:15.960Z,13.60
2017-08-11T04:30:42.375Z,14.47
2017-08-11T04:33:08.787Z,12.03
2017-08-11T04:35:35.204Z,12.33
2017-08-11T04:38:01.639Z,13.23
2017-08-11T04:40:28.104Z,13.87
2017-08-11T04:42:54.570Z,13.27
2017-08-11T04:45:21.136Z,15.47
2017-08-11T04:47:47.695Z,13.03
2017-08-11T04:50:14.255Z,11.87
2017-08-11T04:52:41.495Z,19.50
2017-08-11T04:55:08.758Z,13.33
2017-08-11T04:57:35.180Z,13.30
2017-08-11T05:00:01.619Z,12.53
2017-08-11T05:02:27.995Z,14.90
2017-08-11T05:04:54.403Z,12.40
2017-08-11T05:07:21.535Z,12.40
2017-08-11T05:09:47.966Z,14.03
2017-08-11T05:12:14.392Z,13.23
2017-08-11T05:14:40.763Z,11.13
2017-08-11T05:17:07.915Z,15.20
2017-08-11T05:19:35.146Z,12.53
2017-08-11T05:22:01.523Z,13.60
2017-08-11T05:24:27.918Z,16.80
2017-08-11T05:26:54.327Z,16.77
2017-08-11T05:29:20.728Z,13.87
2017-08-11T05:31:47.200Z,12.53
2017-08-11T05:34:13.625Z,14.37
2017-08-11T05:36:40.056Z,18.73
2017-08-11T05:39:06.460Z,15.80
2017-08-11T05:41:32.896Z,14.63
2017-08-11T05:43:59.291Z,13.93
2017-08-11T05:46:26.411Z,21.33
2017-08-11T05:48:52.822Z,15.67
2017-08-11T05:51:19.559Z,14.30
2017-08-11T05:53:45.955Z,16.13
2017-08-11T05:56:12.338Z,14.80
2017-08-11T05:58:38.763Z,15.27
2017-08-11T06:01:05.198Z,14.23
2017-08-11T06:03:31.612Z,13.73
2017-08-11T06:05:58.047Z,15.57
2017-08-11T06:08:24.480Z,13.67
2017-08-11T06:10:51.054Z,17.43
2017-08-11T06:13:18.235Z,17.53
2017-08-11T06:15:44.608Z,12.00
2017-08-11T06:18:11.152Z,13.57
2017-08-11T06:20:37.555Z,13.40
2017-08-11T06:23:03.939Z,14.87
2017-08-11T06:25:30.347Z,13.07
2017-08-11T06:27:56.780Z,14.30
2017-08-11T06:30:23.152Z,11.50
2017-08-11T06:32:50.306Z,13.47
2017-08-11T06:35:16.703Z,15.70
2017-08-11T06:37:43.075Z,14.40
2017-08-11T06:40:09.546Z,20.43
2017-08-11T06:42:35.928Z,14.07
2017-08-11T06:45:03.101Z,14.13
2017-08-11T06:47:29.520Z,15.10
2017-08-11T06:49:56.708Z,15.37
2017-08-11T06:52:23.128Z,15.67
2017-08-11T06:54:49.516Z,16.30
2017-08-11T06:57:15.908Z,13.83
2017-08-11T06:59:42.362Z,15.23
2017-08-11T07:02:08.768Z,13.23
2017-08-11T07:04:35.152Z,11.33
2017-08-11T07:07:02.300Z,11.87
2017-08-11T07:09:29.500Z,12.37
2017-08-11T07:11:55.888Z,17.53
2017-08-11T07:14:22.352Z,11.70
2017-08-11T07:16:48.767Z,13.80
2017-08-11T07:19:15.238Z,11.23
2017-08-11T07:21:41.655Z,11.37
2017-08-11T07:24:08.047Z,10.33
2017-08-11T07:26:35.190Z,11.93
2017-08-11T07:29:01.668Z,13.73
2017-08-11T07:31:28.092Z,10.20
2017-08-11T07:33:54.519Z,18.47
2017-08-11T07:36:20.940Z,11.47
2017-08-11T07:38:47.475Z,10.73
2017-08-11T07:41:14.624Z,10.50
2017-08-11T07:43:41.788Z,11.13
2017-08-11T07:46:08.214Z,9.70
2017-08-11T07:48:35.455Z,11.10
2017-08-11T07:51:02.587Z,12.33
2017-08-11T07:53:29.035Z,9.90
2017-08-11T07:55:56.159Z,11.00
2017-08-11T07:58:22.559Z,9.43
2017-08-11T08:00:48.964Z,11.33
2017-08-11T08:03:15.348Z,11.33
2017-08-11T08:05:41.730Z,11.17
2017-08-11T08:08:08.192Z,12.50
2017-08-11T08:10:34.590Z,12.07
2017-08-11T08:13:01.023Z,10.80
2017-08-11T08:15:28.188Z,13.60
2017-08-11T08:17:54.555Z,12.37
2017-08-11T08:20:20.942Z,10.23
2017-08-11T08:22:47.442Z,11.97
2017-08-11T08:25:14.380Z,13.00
2017-08-11T08:27:41.708Z,12.47
2017-08-11T08:30:08.124Z,13.63
2017-08-11T08:32:34.780Z,12.50
2017-08-11T08:35:02.008Z,10.20
2017-08-11T08:37:28.623Z,12.43
2017-08-11T08:39:55.847Z,11.17
2017-08-11T08:42:22.239Z,10.57
2017-08-11T08:44:48.856Z,10.83
2017-08-11T08:47:15.255Z,11.20
2017-08-11T08:49:41.754Z,12.47
2017-08-11T08:52:08.135Z,12.13
2017-08-11T08:54:35.287Z,12.10
2017-08-11T08:57:03.392Z,15.07
2017-08-11T08:59:30.308Z,12.20
2017-08-11T09:01:57.064Z,12.17
2017-08-11T09:04:23.681Z,12.10
2017-08-11T09:06:50.112Z,12.00
2017-08-11T09:09:17.696Z,11.23
2017-08-11T09:11:44.376Z,11.23
2017-08-11T09:14:10.807Z,17.73
2017-08-11T09:16:37.341Z,13.33
2017-08-11T09:19:04.060Z,13.53
2017-08-11T09:21:30.511Z,12.00
2017-08-11T09:23:56.911Z,11.83
2017-08-11T09:26:35.616Z,13.73
2017-08-11T09:29:14.168Z,17.10
2017-08-11T09:31:52.935Z,16.30
2017-08-11T09:34:32.365Z,12.17
2017-08-11T09:37:00.040Z,11.97
2017-08-11T09:39:27.231Z,16.50
2017-08-11T09:41:53.648Z,12.30
2017-08-11T09:44:20.054Z,12.90
2017-08-11T09:46:46.471Z,11.70
2017-08-11T09:49:13.699Z,12.13
2017-08-11T09:51:41.120Z,16.47
2017-08-11T09:54:07.922Z,14.90
2017-08-11T09:56:35.106Z,13.60
2017-08-11T09:59:02.295Z,12.53
2017-08-11T10:01:29.079Z,12.93
2017-08-11T10:03:55.567Z,13.53
2017-08-11T10:06:21.966Z,12.03
2017-08-11T10:08:49.167Z,12.90
2017-08-11T10:11:15.599Z,12.23
2017-08-11T10:13:42.031Z,13.90
2017-08-11T10:16:09.014Z,11.73
2017-08-11T10:18:36.320Z,13.67
2017-08-11T10:21:03.259Z,16.13
2017-08-11T10:23:29.869Z,44.93
2017-08-11T10:25:56.324Z,23.90
2017-08-11T10:28:23.323Z,15.70
2017-08-11T10:30:50.295Z,15.27
2017-08-11T10:33:16.907Z,15.20
2017-08-11T10:35:44.415Z,15.03
2017-08-11T10:44:39.838Z,20.77
2017-08-11T10:47:06.239Z,14.33
2017-08-11T10:49:32.733Z,15.63
2017-08-11T10:51:59.152Z,14.63
2017-08-11T10:54:25.532Z,21.33
2017-08-11T10:56:51.952Z,15.23
2017-08-11T10:59:18.364Z,14.50
2017-08-11T11:01:44.776Z,15.20
2017-08-11T11:04:11.190Z,13.97
2017-08-11T11:06:37.820Z,15.93
2017-08-11T11:09:05.144Z,14.93
2017-08-11T11:11:31.526Z,15.53
2017-08-11T11:13:58.652Z,19.67
2017-08-11T11:16:25.800Z,15.23
2017-08-11T11:18:52.298Z,14.93
2017-08-11T11:21:18.726Z,16.20
2017-08-11T11:23:45.130Z,14.90
2017-08-11T11:26:11.511Z,16.57
2017-08-11T11:28:37.919Z,17.53
2017-08-11T11:31:04.360Z,15.47
2017-08-11T11:33:30.747Z,14.73
2017-08-11T11:35:57.163Z,15.03
2017-08-11T11:38:23.651Z,14.47
2017-08-11T11:40:50.079Z,18.63
2017-08-11T11:43:17.541Z,14.87
2017-08-11T11:45:44.026Z,15.40
2017-08-11T11:48:11.235Z,14.33
2017-08-11T11:50:37.615Z,14.40
2017-08-11T11:53:04.764Z,16.63
2017-08-11T11:55:31.882Z,16.30
2017-08-11T11:57:58.256Z,15.20
2017-08-11T12:00:24.671Z,13.87
2017-08-11T12:02:52.055Z,14.77
2017-08-11T12:05:18.463Z,15.60
2017-08-11T12:07:45.602Z,16.07
2017-08-11T12:10:12.083Z,13.97
2017-08-11T12:12:38.487Z,15.87
2017-08-11T12:15:05.647Z,16.63
2017-08-11T12:17:32.031Z,16.13
2017-08-11T12:19:58.540Z,16.27
2017-08-11T12:22:24.978Z,23.83
2017-08-11T12:24:58.199Z,15.60
2017-08-11T12:27:24.580Z,15.97
2017-08-11T12:29:51.054Z,15.97
2017-08-11T12:32:17.432Z,15.77
2017-08-11T12:34:43.849Z,15.60
2017-08-11T12:37:11.863Z,14.67
2017-08-11T12:39:38.776Z,17.00
2017-08-11T12:42:05.232Z,15.00
2017-08-11T12:44:31.599Z,13.83
2017-08-11T12:46:58.027Z,15.40
2017-08-11T12:49:24.469Z,14.40
2017-08-11T12:51:51.652Z,13.97
2017-08-11T12:54:18.787Z,14.10
2017-08-11T12:56:45.255Z,14.80
2017-08-11T12:59:11.735Z,12.53
2017-08-11T13:01:38.123Z,15.43
2017-08-11T13:04:04.536Z,15.30
2017-08-11T13:06:31.687Z,15.07
2017-08-11T13:08:58.195Z,13.63
2017-08-11T13:11:24.688Z,15.37
2017-08-11T13:13:51.132Z,18.97
2017-08-11T13:16:17.571Z,17.13
2017-08-11T13:18:44.019Z,14.83
2017-08-11T13:21:10.500Z,14.40
2017-08-11T13:23:36.907Z,16.27
2017-08-11T13:26:03.387Z,16.80
2017-08-11T13:28:30.883Z,14.20
2017-08-11T13:30:57.868Z,16.70
2017-08-11T13:33:24.424Z,15.07
2017-08-11T13:35:50.808Z,16.57
2017-08-11T13:38:17.332Z,14.60
2017-08-11T13:40:43.744Z,14.27
2017-08-11T13:43:10.155Z,15.10
2017-08-11T13:45:36.555Z,14.53
2017-08-11T13:48:03.774Z,14.63
2017-08-11T13:50:30.200Z,14.00
2017-08-11T13:52:56.582Z,14.70
2017-08-11T13:55:22.979Z,17.67
2017-08-11T13:57:49.427Z,14.57
2017-08-11T14:00:15.944Z,16.80
2017-08-11T14:02:42.331Z,14.30
2017-08-11T14:05:08.756Z,14.10
2017-08-11T14:07:35.140Z,12.63
2017-08-11T14:10:01.536Z,13.87
2017-08-11T14:12:27.943Z,14.53
2017-08-11T14:14:54.349Z,13.63
2017-08-11T14:17:20.736Z,13.50
2017-08-11T14:19:47.181Z,13.10
2017-08-11T14:22:13.639Z,13.90
2017-08-11T14:24:46.134Z,14.30
2017-08-11T14:27:12.519Z,15.30
2017-08-11T14:29:38.956Z,14.90
2017-08-11T14:32:05.385Z,13.57
2017-08-11T14:34:31.779Z,14.57
2017-08-11T14:36:58.195Z,13.23
2017-08-11T14:39:25.400Z,12.77
2017-08-11T14:41:51.775Z,13.90
2017-08-11T14:44:18.942Z,13.57
2017-08-11T14:46:46.093Z,12.57
2017-08-11T14:49:12.584Z,13.17
2017-08-11T14:51:38.967Z,13.73
2017-08-11T14:54:05.379Z,13.63
2017-08-11T14:56:32.536Z,13.17
2017-08-11T14:58:59.716Z,13.13
2017-08-11T15:01:26.132Z,11.13
2017-08-11T15:03:52.491Z,11.70
2017-08-11T15:06:18.872Z,12.53
2017-08-11T15:08:45.379Z,12.67
2017-08-11T15:11:11.795Z,15.60
2017-08-11T15:13:38.218Z,13.33
2017-08-11T15:16:04.631Z,14.30
2017-08-11T15:18:31.079Z,13.67
2017-08-11T15:20:57.491Z,15.40
2017-08-11T15:23:23.891Z,13.47
2017-08-11T15:25:50.293Z,13.57
2017-08-11T15:28:16.704Z,13.87
2017-08-11T15:30:43.091Z,12.27
2017-08-11T15:33:09.478Z,13.60
2017-08-11T15:35:35.871Z,15.10
2017-08-11T15:38:03.071Z,14.47
2017-08-11T15:40:36.543Z,15.53
2017-08-11T15:43:02.967Z,15.63
2017-08-11T15:45:29.344Z,13.40
2017-08-11T15:47:55.770Z,14.43
2017-08-11T15:50:22.158Z,14.53
2017-08-11T15:52:48.545Z,15.03
2017-08-11T15:55:14.962Z,13.53
2017-08-11T15:57:41.368Z,14.13
2017-08-11T16:00:07.849Z,13.50
2017-08-11T16:02:34.311Z,16.03
2017-08-11T16:05:00.711Z,13.80
2017-08-11T16:07:27.136Z,14.83
2017-08-11T16:09:53.587Z,15.50
2017-08-11T16:12:20.005Z,14.63
2017-08-11T16:14:46.419Z,13.17
2017-08-11T16:17:12.881Z,14.73
2017-08-11T16:19:39.327Z,14.17
2017-08-11T16:22:05.727Z,15.63
2017-08-11T16:24:32.152Z,16.33
2017-08-11T16:26:58.606Z,15.57
2017-08-11T16:29:25.021Z,16.87
2017-08-11T16:31:51.468Z,17.07
2017-08-11T16:34:17.895Z,16.03
2017-08-11T16:36:44.315Z,19.63
2017-08-11T16:39:10.747Z,15.73
2017-08-11T16:41:37.588Z,16.13
2017-08-11T16:44:04.408Z,16.20
2017-08-11T16:46:30.843Z,16.37
2017-08-11T16:48:57.286Z,17.17
2017-08-11T16:51:23.679Z,16.07
2017-08-11T16:53:50.081Z,15.33
2017-08-11T16:56:16.460Z,15.67
2017-08-11T16:58:43.659Z,18.53
2017-08-11T17:01:10.095Z,17.60
2017-08-11T17:03:36.486Z,14.90
2017-08-11T17:06:02.911Z,16.17
2017-08-11T17:08:29.369Z,17.67
2017-08-11T17:10:55.774Z,16.30
2017-08-11T17:13:22.241Z,15.93
2017-08-11T17:15:48.700Z,16.27
2017-08-11T17:18:15.114Z,15.97
2017-08-11T17:20:41.500Z,16.40
2017-08-11T17:23:08.660Z,17.10
2017-08-11T17:25:35.058Z,17.97
2017-08-11T17:28:01.470Z,15.33
2017-08-11T17:30:27.851Z,17.10
2017-08-11T17:32:54.233Z,18.63
2017-08-11T17:35:20.655Z,22.50
2017-08-11T17:37:47.032Z,20.53
2017-08-11T17:40:14.260Z,21.17
2017-08-11T17:42:40.729Z,22.73
2017-08-11T17:45:07.139Z,22.63
2017-08-11T17:47:33.547Z,25.47
2017-08-11T17:49:59.975Z,20.60
2017-08-11T17:52:26.359Z,19.77
2017-08-11T17:54:53.502Z,28.80
2017-08-11T17:57:20.642Z,32.40
2017-08-11T17:59:47.845Z,19.30
2017-08-11T18:02:14.235Z,18.10
2017-08-11T18:04:41.392Z,17.80
2017-08-11T18:07:07.772Z,17.33
2017-08-11T18:09:34.227Z,17.17
2017-08-11T18:12:00.681Z,17.67
2017-08-11T18:14:27.256Z,17.53
2017-08-11T18:16:53.683Z,18.30
2017-08-11T18:19:20.112Z,18.10
2017-08-11T18:21:46.504Z,18.20
2017-08-11T18:24:12.906Z,16.73
2017-08-11T18:26:39.287Z,18.17
2017-08-11T18:29:06.419Z,16.30
2017-08-11T18:31:32.808Z,15.73
2017-08-11T18:33:59.191Z,19.00
2017-08-11T18:36:26.359Z,16.67
2017-08-11T18:38:54.579Z,17.37
2017-08-11T18:41:20.988Z,18.20
2017-08-11T18:43:48.163Z,19.13
2017-08-11T18:46:14.553Z,16.17
2017-08-11T18:48:41.023Z,15.97
2017-08-11T18:51:07.395Z,16.90
2017-08-11T18:53:33.820Z,17.67
2017-08-11T18:56:00.203Z,19.27
2017-08-11T18:58:27.412Z,17.47
2017-08-11T19:00:54.554Z,19.13
2017-08-11T19:03:20.947Z,18.60
2017-08-11T19:05:47.327Z,20.53
2017-08-11T19:08:14.526Z,19.13
2017-08-11T19:10:40.911Z,17.73
2017-08-11T19:13:08.031Z,17.63
2017-08-11T19:15:34.427Z,17.90
2017-08-11T19:18:00.844Z,19.43
2017-08-11T19:20:27.272Z,18.97
2017-08-11T19:22:53.655Z,17.60
2017-08-11T19:25:20.083Z,19.23
2017-08-11T19:27:46.512Z,18.13
2017-08-11T19:30:12.928Z,18.33
2017-08-11T19:32:39.347Z,21.23
2017-08-11T19:35:05.728Z,20.27
2017-08-11T19:37:32.127Z,18.80
2017-08-11T19:39:58.553Z,18.40
2017-08-11T19:42:24.955Z,19.13
2017-08-11T19:44:52.100Z,17.97
2017-08-11T19:47:19.237Z,19.27
2017-08-11T19:49:45.746Z,20.43
2017-08-11T19:52:12.123Z,17.30
2017-08-11T19:54:39.251Z,17.67
2017-08-11T19:57:05.654Z,22.63
2017-08-11T19:59:32.064Z,19.17
2017-08-11T20:01:58.451Z,20.27
2017-08-11T20:04:24.860Z,19.13
2017-08-11T20:06:51.223Z,20.27
2017-08-11T20:09:18.429Z,17.07
2017-08-11T20:11:44.824Z,17.63
2017-08-11T20:14:11.199Z,17.00
2017-08-11T20:16:37.600Z,16.57
2017-08-11T20:19:04.044Z,18.07
2017-08-11T20:21:30.443Z,17.53
2017-08-11T20:23:56.896Z,17.93
2017-08-11T20:26:23.308Z,17.60
2017-08-11T20:28:49.797Z,16.67
2017-08-11T20:31:16.199Z,18.87
2017-08-11T20:33:42.623Z,18.60
2017-08-11T20:36:09.039Z,15.47
2017-08-11T20:38:36.233Z,16.70
2017-08-11T20:41:02.647Z,16.70
2017-08-11T20:43:29.024Z,17.57
2017-08-11T20:45:55.439Z,15.80
2017-08-11T20:48:21.856Z,16.20
2017-08-11T20:50:48.251Z,13.10
2017-08-11T20:53:15.371Z,14.30
2017-08-11T20:55:41.899Z,11.80
2017-08-11T20:58:08.432Z,10.90
2017-08-11T21:00:34.811Z,10.70
2017-08-11T21:03:01.204Z,10.60
2017-08-11T21:05:34.759Z,9.57
2017-08-11T21:08:01.142Z,9.43
2017-08-11T21:10:27.515Z,10.13
2017-08-11T21:12:53.915Z,9.23
2017-08-11T21:15:20.286Z,8.93
2017-08-11T21:17:46.690Z,7.70
2017-08-11T21:20:13.879Z,10.30
2017-08-11T21:22:40.289Z,7.87
2017-08-11T21:25:06.822Z,7.70
2017-08-11T21:27:33.251Z,10.87
2017-08-11T21:30:00.471Z,7.37
2017-08-11T21:32:27.659Z,7.77
2017-08-11T21:34:54.052Z,9.63
2017-08-11T21:37:20.443Z,7.93
2017-08-11T21:39:46.912Z,8.50
2017-08-11T21:42:13.288Z,7.07
2017-08-11T21:44:46.918Z,6.63
2017-08-11T21:47:13.332Z,7.70
2017-08-11T21:49:39.794Z,5.80
2017-08-11T21:52:06.164Z,7.40
2017-08-11T21:54:33.311Z,6.63
2017-08-11T21:56:59.717Z,10.73
2017-08-11T21:59:26.126Z,6.50
2017-08-11T22:01:52.530Z,6.57
2017-08-11T22:04:18.923Z,7.03
2017-08-11T22:06:45.274Z,7.73
2017-08-11T22:09:11.783Z,7.73
2017-08-11T22:11:38.146Z,8.07
2017-08-11T22:14:05.299Z,7.60
2017-08-11T22:16:32.430Z,7.60
2017-08-11T22:18:58.826Z,8.63
2017-08-11T22:21:25.222Z,8.03
2017-08-11T22:23:51.639Z,8.57
2017-08-11T22:26:18.051Z,7.23
2017-08-11T22:28:44.471Z,7.43
2017-08-11T22:31:10.871Z,10.87
2017-08-11T22:33:37.244Z,7.67
2017-08-11T22:36:03.627Z,8.90
2017-08-11T22:38:30.112Z,9.77
2017-08-11T22:40:56.534Z,11.43
2017-08-11T22:43:22.900Z,11.70
2017-08-11T22:45:50.021Z,11.60
2017-08-11T22:48:16.459Z,13.50
2017-08-11T22:50:42.854Z,12.10
2017-08-11T22:53:09.240Z,12.00
2017-08-11T22:55:35.643Z,15.23
2017-08-11T22:58:02.036Z,11.57
2017-08-11T23:00:28.420Z,12.63
2017-08-11T23:02:54.808Z,11.83
2017-08-11T23:05:21.195Z,11.20
2017-08-11T23:07:47.580Z,11.47
2017-08-11T23:10:14.011Z,11.40
2017-08-11T23:12:41.367Z,12.30
2017-08-11T23:15:07.789Z,12.07
2017-08-11T23:17:34.191Z,12.27
2017-08-11T23:20:01.371Z,11.20
2017-08-11T23:22:27.783Z,12.27
2017-08-11T23:24:54.928Z,10.77
2017-08-11T23:27:22.089Z,12.67
2017-08-11T23:29:49.292Z,11.30
2017-08-11T23:32:15.671Z,10.93
2017-08-11T23:34:42.055Z,13.37
2017-08-11T23:37:08.458Z,11.40
2017-08-11T23:39:34.884Z,12.70
2017-08-11T23:42:01.247Z,12.30
2017-08-11T23:44:27.655Z,13.33
2017-08-11T23:46:54.036Z,11.33
2017-08-11T23:49:20.439Z,12.67
2017-08-11T23:51:46.843Z,12.67
2017-08-11T23:54:13.217Z,12.80
2017-08-11T23:56:39.611Z,11.60
2017-08-11T23:59:06.063Z,12.50
